sensor_id;sensor_type;location;lat;lon;timestamp;temperature;humidity
15554;DHT22;7878;44.632;10.942;2022-09-02T00:00:48;23.60;99.90
15554;DHT22;7878;44.632;10.942;2022-09-02T00:03:15;23.60;99.90
15554;DHT22;7878;44.632;10.942;2022-09-02T00:05:41;23.60;99.90
15554;DHT22;7878;44.632;10.942;2022-09-02T00:08:07;23.60;99.90
15554;DHT22;7878;44.632;10.942;2022-09-02T00:10:35;23.60;99.90
15554;DHT22;7878;44.632;10.942;2022-09-02T00:13:02;23.60;99.90
15554;DHT22;7878;44.632;10.942;2022-09-02T00:15:28;23.60;99.90
15554;DHT22;7878;44.632;10.942;2022-09-02T00:17:54;23.60;99.90
15554;DHT22;7878;44.632;10.942;2022-09-02T00:20:19;23.60;99.90
15554;DHT22;7878;44.632;10.942;2022-09-02T00:22:46;23.60;99.90
15554;DHT22;7878;44.632;10.942;2022-09-02T00:25:12;23.60;99.90
15554;DHT22;7878;44.632;10.942;2022-09-02T00:27:38;23.60;99.90
15554;DHT22;7878;44.632;10.942;2022-09-02T00:30:04;23.60;99.90
15554;DHT22;7878;44.632;10.942;2022-09-02T00:32:30;23.50;99.90
15554;DHT22;7878;44.632;10.942;2022-09-02T00:34:56;23.50;99.90
15554;DHT22;7878;44.632;10.942;2022-09-02T00:37:24;23.40;99.90
15554;DHT22;7878;44.632;10.942;2022-09-02T00:39:51;23.40;99.90
15554;DHT22;7878;44.632;10.942;2022-09-02T00:42:18;23.40;99.90
15554;DHT22;7878;44.632;10.942;2022-09-02T00:44:44;23.40;99.90
15554;DHT22;7878;44.632;10.942;2022-09-02T00:47:10;23.30;99.90
15554;DHT22;7878;44.632;10.942;2022-09-02T00:49:38;23.30;99.90
15554;DHT22;7878;44.632;10.942;2022-09-02T00:52:21;23.30;99.90
15554;DHT22;7878;44.632;10.942;2022-09-02T00:54:55;23.30;99.90
15554;DHT22;7878;44.632;10.942;2022-09-02T00:57:29;23.30;99.90
15554;DHT22;7878;44.632;10.942;2022-09-02T01:02:31;23.20;99.90
15554;DHT22;7878;44.632;10.942;2022-09-02T01:04:59;23.20;99.90
15554;DHT22;7878;44.632;10.942;2022-09-02T01:07:29;23.20;99.90
15554;DHT22;7878;44.632;10.942;2022-09-02T01:09:56;23.20;99.90
15554;DHT22;7878;44.632;10.942;2022-09-02T01:12:23;23.10;99.90
15554;DHT22;7878;44.632;10.942;2022-09-02T01:14:48;23.10;99.90
15554;DHT22;7878;44.632;10.942;2022-09-02T01:17:14;23.10;99.90
15554;DHT22;7878;44.632;10.942;2022-09-02T01:19:47;23.10;99.90
15554;DHT22;7878;44.632;10.942;2022-09-02T01:22:25;23.10;99.90
15554;DHT22;7878;44.632;10.942;2022-09-02T01:24:51;23.00;99.90
15554;DHT22;7878;44.632;10.942;2022-09-02T01:27:20;23.00;99.90
15554;DHT22;7878;44.632;10.942;2022-09-02T01:29:51;23.00;99.90
15554;DHT22;7878;44.632;10.942;2022-09-02T01:32:18;23.10;99.90
15554;DHT22;7878;44.632;10.942;2022-09-02T01:34:43;23.10;99.90
15554;DHT22;7878;44.632;10.942;2022-09-02T01:37:09;23.10;99.90
15554;DHT22;7878;44.632;10.942;2022-09-02T01:39:35;23.00;99.90
15554;DHT22;7878;44.632;10.942;2022-09-02T01:42:01;23.00;99.90
15554;DHT22;7878;44.632;10.942;2022-09-02T01:44:27;23.00;99.90
15554;DHT22;7878;44.632;10.942;2022-09-02T01:46:53;22.90;99.90
15554;DHT22;7878;44.632;10.942;2022-09-02T01:49:20;22.90;99.90
15554;DHT22;7878;44.632;10.942;2022-09-02T01:51:46;22.90;99.90
15554;DHT22;7878;44.632;10.942;2022-09-02T01:54:11;22.90;99.90
15554;DHT22;7878;44.632;10.942;2022-09-02T01:56:38;22.90;99.90
15554;DHT22;7878;44.632;10.942;2022-09-02T01:59:04;22.90;99.90
15554;DHT22;7878;44.632;10.942;2022-09-02T02:01:33;22.90;99.90
15554;DHT22;7878;44.632;10.942;2022-09-02T02:03:59;22.90;99.90
15554;DHT22;7878;44.632;10.942;2022-09-02T02:06:26;22.90;99.90
15554;DHT22;7878;44.632;10.942;2022-09-02T02:08:52;22.90;99.90
15554;DHT22;7878;44.632;10.942;2022-09-02T02:11:22;22.80;99.90
15554;DHT22;7878;44.632;10.942;2022-09-02T02:13:48;22.80;99.90
15554;DHT22;7878;44.632;10.942;2022-09-02T02:16:14;22.80;99.90
15554;DHT22;7878;44.632;10.942;2022-09-02T02:18:40;22.80;99.90
15554;DHT22;7878;44.632;10.942;2022-09-02T02:21:05;22.80;99.90
15554;DHT22;7878;44.632;10.942;2022-09-02T02:23:31;22.80;99.90
15554;DHT22;7878;44.632;10.942;2022-09-02T02:25:57;22.70;99.90
15554;DHT22;7878;44.632;10.942;2022-09-02T02:28:23;22.70;99.90
15554;DHT22;7878;44.632;10.942;2022-09-02T02:30:48;22.70;99.90
15554;DHT22;7878;44.632;10.942;2022-09-02T02:33:14;22.70;99.90
15554;DHT22;7878;44.632;10.942;2022-09-02T02:35:41;22.60;99.90
15554;DHT22;7878;44.632;10.942;2022-09-02T02:38:07;22.60;99.90
15554;DHT22;7878;44.632;10.942;2022-09-02T02:40:33;22.50;99.90
15554;DHT22;7878;44.632;10.942;2022-09-02T02:42:59;22.50;99.90
15554;DHT22;7878;44.632;10.942;2022-09-02T02:45:25;22.50;99.90
15554;DHT22;7878;44.632;10.942;2022-09-02T02:47:51;22.50;99.90
15554;DHT22;7878;44.632;10.942;2022-09-02T02:50:19;22.50;99.90
15554;DHT22;7878;44.632;10.942;2022-09-02T02:52:46;22.50;99.90
15554;DHT22;7878;44.632;10.942;2022-09-02T02:55:14;22.40;99.90
15554;DHT22;7878;44.632;10.942;2022-09-02T02:57:41;22.40;99.90
15554;DHT22;7878;44.632;10.942;2022-09-02T03:02:35;22.30;99.90
15554;DHT22;7878;44.632;10.942;2022-09-02T03:05:04;22.30;99.90
15554;DHT22;7878;44.632;10.942;2022-09-02T03:07:29;22.40;99.90
15554;DHT22;7878;44.632;10.942;2022-09-02T03:09:55;22.40;99.90
15554;DHT22;7878;44.632;10.942;2022-09-02T03:12:21;22.40;99.90
15554;DHT22;7878;44.632;10.942;2022-09-02T03:14:48;22.40;99.90
15554;DHT22;7878;44.632;10.942;2022-09-02T03:17:13;22.40;99.90
15554;DHT22;7878;44.632;10.942;2022-09-02T03:19:39;22.40;99.90
15554;DHT22;7878;44.632;10.942;2022-09-02T03:22:05;22.40;99.90
15554;DHT22;7878;44.632;10.942;2022-09-02T03:24:31;22.40;99.90
15554;DHT22;7878;44.632;10.942;2022-09-02T03:26:57;22.40;99.90
15554;DHT22;7878;44.632;10.942;2022-09-02T03:29:22;22.40;99.90
15554;DHT22;7878;44.632;10.942;2022-09-02T03:31:48;22.40;99.90
15554;DHT22;7878;44.632;10.942;2022-09-02T03:34:14;22.40;99.90
15554;DHT22;7878;44.632;10.942;2022-09-02T03:36:40;22.40;99.90
15554;DHT22;7878;44.632;10.942;2022-09-02T03:39:07;22.50;99.90
15554;DHT22;7878;44.632;10.942;2022-09-02T03:41:33;22.50;99.90
15554;DHT22;7878;44.632;10.942;2022-09-02T03:44:00;22.40;99.90
15554;DHT22;7878;44.632;10.942;2022-09-02T03:46:26;22.40;99.90
15554;DHT22;7878;44.632;10.942;2022-09-02T03:48:52;22.40;99.90
15554;DHT22;7878;44.632;10.942;2022-09-02T03:51:21;22.40;99.90
15554;DHT22;7878;44.632;10.942;2022-09-02T03:53:48;22.40;99.90
15554;DHT22;7878;44.632;10.942;2022-09-02T03:56:15;22.30;99.90
15554;DHT22;7878;44.632;10.942;2022-09-02T03:58:43;22.30;99.90
15554;DHT22;7878;44.632;10.942;2022-09-02T04:01:23;22.30;99.90
15554;DHT22;7878;44.632;10.942;2022-09-02T04:03:49;22.30;99.90
15554;DHT22;7878;44.632;10.942;2022-09-02T04:06:17;22.30;99.90
15554;DHT22;7878;44.632;10.942;2022-09-02T04:08:44;22.30;99.90
15554;DHT22;7878;44.632;10.942;2022-09-02T04:11:13;22.30;99.90
15554;DHT22;7878;44.632;10.942;2022-09-02T04:13:41;22.30;99.90
15554;DHT22;7878;44.632;10.942;2022-09-02T04:16:18;22.30;99.90
15554;DHT22;7878;44.632;10.942;2022-09-02T04:18:44;22.20;99.90
15554;DHT22;7878;44.632;10.942;2022-09-02T04:21:10;22.20;99.90
15554;DHT22;7878;44.632;10.942;2022-09-02T04:23:36;22.20;99.90
15554;DHT22;7878;44.632;10.942;2022-09-02T04:26:07;22.20;99.90
15554;DHT22;7878;44.632;10.942;2022-09-02T04:28:34;22.20;99.90
15554;DHT22;7878;44.632;10.942;2022-09-02T04:31:06;22.10;99.90
15554;DHT22;7878;44.632;10.942;2022-09-02T04:33:32;22.10;99.90
15554;DHT22;7878;44.632;10.942;2022-09-02T04:35:58;22.10;99.90
15554;DHT22;7878;44.632;10.942;2022-09-02T04:38:24;22.00;99.90
15554;DHT22;7878;44.632;10.942;2022-09-02T04:40:49;22.00;99.90
15554;DHT22;7878;44.632;10.942;2022-09-02T04:43:15;21.90;99.90
15554;DHT22;7878;44.632;10.942;2022-09-02T04:45:44;21.80;99.90
15554;DHT22;7878;44.632;10.942;2022-09-02T04:48:11;21.80;99.90
15554;DHT22;7878;44.632;10.942;2022-09-02T04:50:38;21.80;99.90
15554;DHT22;7878;44.632;10.942;2022-09-02T04:53:04;21.80;99.90
15554;DHT22;7878;44.632;10.942;2022-09-02T04:55:31;21.80;99.90
15554;DHT22;7878;44.632;10.942;2022-09-02T04:57:57;21.80;99.90
15554;DHT22;7878;44.632;10.942;2022-09-02T05:00:23;21.70;99.90
15554;DHT22;7878;44.632;10.942;2022-09-02T05:02:49;21.70;99.90
15554;DHT22;7878;44.632;10.942;2022-09-02T05:05:15;21.80;99.90
15554;DHT22;7878;44.632;10.942;2022-09-02T05:07:41;21.80;99.90
15554;DHT22;7878;44.632;10.942;2022-09-02T05:10:07;21.80;99.90
15554;DHT22;7878;44.632;10.942;2022-09-02T05:12:33;21.80;99.90
15554;DHT22;7878;44.632;10.942;2022-09-02T05:15:00;21.80;99.90
15554;DHT22;7878;44.632;10.942;2022-09-02T05:17:27;21.80;99.90
15554;DHT22;7878;44.632;10.942;2022-09-02T05:19:56;21.70;99.90
15554;DHT22;7878;44.632;10.942;2022-09-02T05:22:22;21.80;99.90
15554;DHT22;7878;44.632;10.942;2022-09-02T05:24:48;21.80;99.90
15554;DHT22;7878;44.632;10.942;2022-09-02T05:27:13;21.90;99.90
15554;DHT22;7878;44.632;10.942;2022-09-02T05:29:40;21.90;99.90
15554;DHT22;7878;44.632;10.942;2022-09-02T05:32:06;21.90;99.90
15554;DHT22;7878;44.632;10.942;2022-09-02T05:34:33;22.00;99.90
15554;DHT22;7878;44.632;10.942;2022-09-02T05:37:01;22.00;99.90
15554;DHT22;7878;44.632;10.942;2022-09-02T05:39:27;22.00;99.90
15554;DHT22;7878;44.632;10.942;2022-09-02T05:41:52;22.00;99.90
15554;DHT22;7878;44.632;10.942;2022-09-02T05:44:18;22.10;99.90
15554;DHT22;7878;44.632;10.942;2022-09-02T05:46:44;22.10;99.90
15554;DHT22;7878;44.632;10.942;2022-09-02T05:49:10;22.10;99.90
15554;DHT22;7878;44.632;10.942;2022-09-02T05:51:48;22.10;99.90
15554;DHT22;7878;44.632;10.942;2022-09-02T05:54:23;22.10;99.90
15554;DHT22;7878;44.632;10.942;2022-09-02T05:56:53;22.20;99.90
15554;DHT22;7878;44.632;10.942;2022-09-02T05:59:20;22.20;99.90
15554;DHT22;7878;44.632;10.942;2022-09-02T06:01:47;22.20;99.90
15554;DHT22;7878;44.632;10.942;2022-09-02T06:04:13;22.20;99.90
15554;DHT22;7878;44.632;10.942;2022-09-02T06:06:39;22.20;99.90
15554;DHT22;7878;44.632;10.942;2022-09-02T06:09:07;22.20;99.90
15554;DHT22;7878;44.632;10.942;2022-09-02T06:11:35;22.20;99.90
15554;DHT22;7878;44.632;10.942;2022-09-02T06:14:07;22.20;99.90
15554;DHT22;7878;44.632;10.942;2022-09-02T06:16:33;22.20;99.90
15554;DHT22;7878;44.632;10.942;2022-09-02T06:18:59;22.20;99.90
15554;DHT22;7878;44.632;10.942;2022-09-02T06:21:24;22.20;99.90
15554;DHT22;7878;44.632;10.942;2022-09-02T06:23:50;22.20;99.90
15554;DHT22;7878;44.632;10.942;2022-09-02T06:26:16;22.20;99.90
15554;DHT22;7878;44.632;10.942;2022-09-02T06:28:43;22.20;99.90
15554;DHT22;7878;44.632;10.942;2022-09-02T06:31:17;22.20;99.90
15554;DHT22;7878;44.632;10.942;2022-09-02T06:33:44;22.20;99.90
15554;DHT22;7878;44.632;10.942;2022-09-02T06:36:12;22.20;99.90
15554;DHT22;7878;44.632;10.942;2022-09-02T06:38:40;22.20;99.90
15554;DHT22;7878;44.632;10.942;2022-09-02T06:41:07;22.30;99.90
15554;DHT22;7878;44.632;10.942;2022-09-02T06:43:34;22.40;99.90
15554;DHT22;7878;44.632;10.942;2022-09-02T06:46:00;22.40;99.90
15554;DHT22;7878;44.632;10.942;2022-09-02T06:48:26;22.50;99.90
15554;DHT22;7878;44.632;10.942;2022-09-02T06:50:51;22.50;99.90
15554;DHT22;7878;44.632;10.942;2022-09-02T06:53:17;22.50;99.90
15554;DHT22;7878;44.632;10.942;2022-09-02T06:55:45;22.60;99.90
15554;DHT22;7878;44.632;10.942;2022-09-02T06:58:12;22.60;99.90
15554;DHT22;7878;44.632;10.942;2022-09-02T07:00:39;22.80;99.90
15554;DHT22;7878;44.632;10.942;2022-09-02T07:03:06;22.90;99.90
15554;DHT22;7878;44.632;10.942;2022-09-02T07:06:06;23.00;99.90
15554;DHT22;7878;44.632;10.942;2022-09-02T07:08:39;23.10;99.90
15554;DHT22;7878;44.632;10.942;2022-09-02T07:11:07;23.00;99.90
15554;DHT22;7878;44.632;10.942;2022-09-02T07:13:39;23.10;99.90
15554;DHT22;7878;44.632;10.942;2022-09-02T07:16:05;23.10;99.90
15554;DHT22;7878;44.632;10.942;2022-09-02T07:18:32;23.20;99.90
15554;DHT22;7878;44.632;10.942;2022-09-02T07:20:58;23.20;99.90
15554;DHT22;7878;44.632;10.942;2022-09-02T07:23:24;23.20;99.90
15554;DHT22;7878;44.632;10.942;2022-09-02T07:25:50;23.30;99.90
15554;DHT22;7878;44.632;10.942;2022-09-02T07:28:15;23.30;99.90
15554;DHT22;7878;44.632;10.942;2022-09-02T07:30:42;23.30;99.90
15554;DHT22;7878;44.632;10.942;2022-09-02T07:33:12;23.30;99.90
15554;DHT22;7878;44.632;10.942;2022-09-02T07:35:40;23.30;99.90
15554;DHT22;7878;44.632;10.942;2022-09-02T07:38:07;23.30;99.90
15554;DHT22;7878;44.632;10.942;2022-09-02T07:40:33;23.30;99.90
15554;DHT22;7878;44.632;10.942;2022-09-02T07:43:02;23.30;99.90
15554;DHT22;7878;44.632;10.942;2022-09-02T07:45:29;23.30;99.90
15554;DHT22;7878;44.632;10.942;2022-09-02T07:47:55;23.40;99.90
15554;DHT22;7878;44.632;10.942;2022-09-02T07:50:21;23.50;99.90
15554;DHT22;7878;44.632;10.942;2022-09-02T07:52:49;23.60;99.90
15554;DHT22;7878;44.632;10.942;2022-09-02T07:55:15;23.60;99.90
15554;DHT22;7878;44.632;10.942;2022-09-02T07:57:41;23.60;99.90
15554;DHT22;7878;44.632;10.942;2022-09-02T08:00:07;23.70;99.90
15554;DHT22;7878;44.632;10.942;2022-09-02T08:02:33;23.80;99.90
15554;DHT22;7878;44.632;10.942;2022-09-02T08:04:59;23.90;99.90
15554;DHT22;7878;44.632;10.942;2022-09-02T08:07:24;24.10;99.90
15554;DHT22;7878;44.632;10.942;2022-09-02T08:09:51;24.40;99.90
15554;DHT22;7878;44.632;10.942;2022-09-02T08:12:17;24.80;99.90
15554;DHT22;7878;44.632;10.942;2022-09-02T08:14:42;25.10;99.90
15554;DHT22;7878;44.632;10.942;2022-09-02T08:17:08;25.20;99.90
15554;DHT22;7878;44.632;10.942;2022-09-02T08:19:34;25.30;99.90
15554;DHT22;7878;44.632;10.942;2022-09-02T08:22:05;25.30;99.90
15554;DHT22;7878;44.632;10.942;2022-09-02T08:24:31;25.30;99.90
15554;DHT22;7878;44.632;10.942;2022-09-02T08:26:58;25.30;99.90
15554;DHT22;7878;44.632;10.942;2022-09-02T08:29:24;25.30;99.90
15554;DHT22;7878;44.632;10.942;2022-09-02T08:31:50;25.20;99.90
15554;DHT22;7878;44.632;10.942;2022-09-02T08:34:16;25.30;99.90
15554;DHT22;7878;44.632;10.942;2022-09-02T08:36:43;25.20;99.90
15554;DHT22;7878;44.632;10.942;2022-09-02T08:39:09;25.20;99.90
15554;DHT22;7878;44.632;10.942;2022-09-02T08:41:46;25.30;99.90
15554;DHT22;7878;44.632;10.942;2022-09-02T08:44:20;25.40;99.90
15554;DHT22;7878;44.632;10.942;2022-09-02T08:46:49;25.50;99.90
15554;DHT22;7878;44.632;10.942;2022-09-02T08:49:29;25.50;99.90
15554;DHT22;7878;44.632;10.942;2022-09-02T08:52:00;25.40;99.90
15554;DHT22;7878;44.632;10.942;2022-09-02T08:56:56;25.80;99.90
15554;DHT22;7878;44.632;10.942;2022-09-02T08:59:25;25.80;99.90
15554;DHT22;7878;44.632;10.942;2022-09-02T09:13:54;25.50;99.90
15554;DHT22;7878;44.632;10.942;2022-09-02T09:17:06;25.60;99.90
15554;DHT22;7878;44.632;10.942;2022-09-02T09:22:17;25.60;99.90
15554;DHT22;7878;44.632;10.942;2022-09-02T09:24:46;25.70;99.90
15554;DHT22;7878;44.632;10.942;2022-09-02T09:27:21;25.70;99.90
15554;DHT22;7878;44.632;10.942;2022-09-02T09:29:48;25.90;99.90
15554;DHT22;7878;44.632;10.942;2022-09-02T09:32:30;25.90;99.90
15554;DHT22;7878;44.632;10.942;2022-09-02T09:35:08;26.00;99.90
15554;DHT22;7878;44.632;10.942;2022-09-02T09:37:40;25.90;99.90
15554;DHT22;7878;44.632;10.942;2022-09-02T09:42:49;25.90;99.90
15554;DHT22;7878;44.632;10.942;2022-09-02T09:45:25;26.00;99.90
15554;DHT22;7878;44.632;10.942;2022-09-02T09:48:23;26.00;99.90
15554;DHT22;7878;44.632;10.942;2022-09-02T09:53:25;26.10;99.90
15554;DHT22;7878;44.632;10.942;2022-09-02T10:01:23;26.20;99.90
15554;DHT22;7878;44.632;10.942;2022-09-02T10:03:55;26.20;99.90
15554;DHT22;7878;44.632;10.942;2022-09-02T10:09:14;26.20;99.90
15554;DHT22;7878;44.632;10.942;2022-09-02T10:11:56;26.20;99.90
15554;DHT22;7878;44.632;10.942;2022-09-02T10:14:22;26.40;99.90
15554;DHT22;7878;44.632;10.942;2022-09-02T10:19:37;26.50;99.90
15554;DHT22;7878;44.632;10.942;2022-09-02T10:27:10;26.60;99.90
15554;DHT22;7878;44.632;10.942;2022-09-02T10:32:20;26.70;99.90
15554;DHT22;7878;44.632;10.942;2022-09-02T10:40:29;26.90;99.90
15554;DHT22;7878;44.632;10.942;2022-09-02T10:43:09;27.10;99.90
15554;DHT22;7878;44.632;10.942;2022-09-02T10:45:44;27.20;99.90
15554;DHT22;7878;44.632;10.942;2022-09-02T11:01:29;28.10;99.90
15554;DHT22;7878;44.632;10.942;2022-09-02T11:04:04;28.20;99.90
15554;DHT22;7878;44.632;10.942;2022-09-02T11:06:37;28.60;99.90
15554;DHT22;7878;44.632;10.942;2022-09-02T11:09:08;29.00;99.90
15554;DHT22;7878;44.632;10.942;2022-09-02T11:11:46;29.10;99.90
15554;DHT22;7878;44.632;10.942;2022-09-02T11:14:19;29.60;99.90
15554;DHT22;7878;44.632;10.942;2022-09-02T11:19:38;33.20;99.90
15554;DHT22;7878;44.632;10.942;2022-09-02T11:25:04;34.60;99.90
15554;DHT22;7878;44.632;10.942;2022-09-02T11:30:21;33.80;99.90
15554;DHT22;7878;44.632;10.942;2022-09-02T11:32:48;34.00;99.90
15554;DHT22;7878;44.632;10.942;2022-09-02T11:35:22;34.60;99.90
15554;DHT22;7878;44.632;10.942;2022-09-02T11:40:26;36.90;99.90
15554;DHT22;7878;44.632;10.942;2022-09-02T11:51:30;33.00;99.90
15554;DHT22;7878;44.632;10.942;2022-09-02T11:54:01;32.40;99.90
15554;DHT22;7878;44.632;10.942;2022-09-02T11:56:41;32.00;99.90
15554;DHT22;7878;44.632;10.942;2022-09-02T11:59:22;31.70;99.90
15554;DHT22;7878;44.632;10.942;2022-09-02T12:01:52;31.40;99.90
15554;DHT22;7878;44.632;10.942;2022-09-02T12:04:23;31.30;99.90
15554;DHT22;7878;44.632;10.942;2022-09-02T12:09:51;30.80;99.90
15554;DHT22;7878;44.632;10.942;2022-09-02T12:17:35;30.30;99.90
15554;DHT22;7878;44.632;10.942;2022-09-02T12:20:04;30.10;99.90
15554;DHT22;7878;44.632;10.942;2022-09-02T12:22:36;30.00;99.90
15554;DHT22;7878;44.632;10.942;2022-09-02T12:25:32;30.00;99.90
15554;DHT22;7878;44.632;10.942;2022-09-02T12:27:59;29.90;99.90
15554;DHT22;7878;44.632;10.942;2022-09-02T12:33:36;29.70;99.90
15554;DHT22;7878;44.632;10.942;2022-09-02T12:36:04;29.60;99.90
15554;DHT22;7878;44.632;10.942;2022-09-02T12:43:52;29.20;99.90
15554;DHT22;7878;44.632;10.942;2022-09-02T12:46:43;29.10;99.90
15554;DHT22;7878;44.632;10.942;2022-09-02T12:52:04;28.90;99.90
15554;DHT22;7878;44.632;10.942;2022-09-02T12:54:44;29.00;99.90
15554;DHT22;7878;44.632;10.942;2022-09-02T12:57:14;29.00;99.90
15554;DHT22;7878;44.632;10.942;2022-09-02T12:59:42;29.00;99.90
15554;DHT22;7878;44.632;10.942;2022-09-02T13:02:43;28.90;99.90
15554;DHT22;7878;44.632;10.942;2022-09-02T13:10:41;28.80;99.90
15554;DHT22;7878;44.632;10.942;2022-09-02T13:16:13;28.70;99.90
15554;DHT22;7878;44.632;10.942;2022-09-02T13:21:56;28.50;99.90
15554;DHT22;7878;44.632;10.942;2022-09-02T13:25:08;28.50;99.90
15554;DHT22;7878;44.632;10.942;2022-09-02T13:27:49;28.60;99.90
15554;DHT22;7878;44.632;10.942;2022-09-02T13:30:21;28.50;99.90
15554;DHT22;7878;44.632;10.942;2022-09-02T13:33:04;28.60;99.90
15554;DHT22;7878;44.632;10.942;2022-09-02T13:35:32;28.60;99.90
15554;DHT22;7878;44.632;10.942;2022-09-02T13:37:59;28.60;99.90
15554;DHT22;7878;44.632;10.942;2022-09-02T13:40:34;28.70;99.90
15554;DHT22;7878;44.632;10.942;2022-09-02T13:45:36;28.60;99.90
15554;DHT22;7878;44.632;10.942;2022-09-02T13:48:10;28.70;99.90
15554;DHT22;7878;44.632;10.942;2022-09-02T13:50:43;28.70;99.90
15554;DHT22;7878;44.632;10.942;2022-09-02T13:53:34;28.70;99.90
15554;DHT22;7878;44.632;10.942;2022-09-02T13:55:59;28.70;99.90
15554;DHT22;7878;44.632;10.942;2022-09-02T14:00:56;28.50;99.90
15554;DHT22;7878;44.632;10.942;2022-09-02T14:03:23;28.50;99.90
15554;DHT22;7878;44.632;10.942;2022-09-02T14:05:51;28.50;99.90
15554;DHT22;7878;44.632;10.942;2022-09-02T14:08:23;28.50;99.90
15554;DHT22;7878;44.632;10.942;2022-09-02T14:10:52;28.40;99.90
15554;DHT22;7878;44.632;10.942;2022-09-02T14:13:19;28.50;99.90
15554;DHT22;7878;44.632;10.942;2022-09-02T14:15:45;28.50;99.90
15554;DHT22;7878;44.632;10.942;2022-09-02T14:20:53;28.50;99.90
15554;DHT22;7878;44.632;10.942;2022-09-02T14:23:20;28.40;99.90
15554;DHT22;7878;44.632;10.942;2022-09-02T14:25:59;28.50;99.90
15554;DHT22;7878;44.632;10.942;2022-09-02T14:28:28;28.50;99.90
15554;DHT22;7878;44.632;10.942;2022-09-02T14:31:05;28.50;99.90
15554;DHT22;7878;44.632;10.942;2022-09-02T14:36:34;28.40;99.90
15554;DHT22;7878;44.632;10.942;2022-09-02T14:39:15;28.50;99.90
15554;DHT22;7878;44.632;10.942;2022-09-02T14:41:47;28.50;99.90
15554;DHT22;7878;44.632;10.942;2022-09-02T14:44:26;28.50;99.90
15554;DHT22;7878;44.632;10.942;2022-09-02T14:46:58;28.40;99.90
15554;DHT22;7878;44.632;10.942;2022-09-02T14:49:27;28.40;99.90
15554;DHT22;7878;44.632;10.942;2022-09-02T14:51:59;28.40;99.90
15554;DHT22;7878;44.632;10.942;2022-09-02T14:54:45;28.40;99.90
15554;DHT22;7878;44.632;10.942;2022-09-02T14:57:32;28.40;99.90
15554;DHT22;7878;44.632;10.942;2022-09-02T15:00:10;28.30;99.90
15554;DHT22;7878;44.632;10.942;2022-09-02T15:02:40;28.40;99.90
15554;DHT22;7878;44.632;10.942;2022-09-02T15:05:09;28.40;99.90
15554;DHT22;7878;44.632;10.942;2022-09-02T15:07:35;28.40;99.90
15554;DHT22;7878;44.632;10.942;2022-09-02T15:10:01;28.40;99.90
15554;DHT22;7878;44.632;10.942;2022-09-02T15:12:31;28.40;99.90
15554;DHT22;7878;44.632;10.942;2022-09-02T15:14:58;28.40;99.90
15554;DHT22;7878;44.632;10.942;2022-09-02T15:17:24;28.40;99.90
15554;DHT22;7878;44.632;10.942;2022-09-02T15:19:50;28.30;99.90
15554;DHT22;7878;44.632;10.942;2022-09-02T15:22:17;28.30;99.90
15554;DHT22;7878;44.632;10.942;2022-09-02T15:24:43;28.30;99.90
15554;DHT22;7878;44.632;10.942;2022-09-02T15:27:10;28.30;99.90
15554;DHT22;7878;44.632;10.942;2022-09-02T15:29:36;28.30;99.90
15554;DHT22;7878;44.632;10.942;2022-09-02T15:32:02;28.30;99.90
15554;DHT22;7878;44.632;10.942;2022-09-02T15:34:31;28.30;99.90
15554;DHT22;7878;44.632;10.942;2022-09-02T15:36:59;28.30;99.90
15554;DHT22;7878;44.632;10.942;2022-09-02T15:39:25;28.20;99.90
15554;DHT22;7878;44.632;10.942;2022-09-02T15:41:52;28.20;99.90
15554;DHT22;7878;44.632;10.942;2022-09-02T15:44:20;28.20;99.90
15554;DHT22;7878;44.632;10.942;2022-09-02T15:46:46;28.10;99.90
15554;DHT22;7878;44.632;10.942;2022-09-02T15:49:14;28.10;99.90
15554;DHT22;7878;44.632;10.942;2022-09-02T15:51:44;28.00;99.90
15554;DHT22;7878;44.632;10.942;2022-09-02T15:54:11;28.00;99.90
15554;DHT22;7878;44.632;10.942;2022-09-02T15:56:39;28.00;99.90
15554;DHT22;7878;44.632;10.942;2022-09-02T15:59:08;28.00;99.90
15554;DHT22;7878;44.632;10.942;2022-09-02T16:01:39;28.00;99.90
15554;DHT22;7878;44.632;10.942;2022-09-02T16:04:06;28.00;99.90
15554;DHT22;7878;44.632;10.942;2022-09-02T16:06:34;28.00;99.90
15554;DHT22;7878;44.632;10.942;2022-09-02T16:09:09;28.00;99.90
15554;DHT22;7878;44.632;10.942;2022-09-02T16:11:39;28.00;99.90
15554;DHT22;7878;44.632;10.942;2022-09-02T16:14:05;28.00;99.90
15554;DHT22;7878;44.632;10.942;2022-09-02T16:16:32;27.90;99.90
15554;DHT22;7878;44.632;10.942;2022-09-02T16:18:58;27.90;99.90
15554;DHT22;7878;44.632;10.942;2022-09-02T16:21:23;27.90;99.90
15554;DHT22;7878;44.632;10.942;2022-09-02T16:23:50;27.90;99.90
15554;DHT22;7878;44.632;10.942;2022-09-02T16:26:27;27.90;99.90
15554;DHT22;7878;44.632;10.942;2022-09-02T16:28:56;27.90;99.90
15554;DHT22;7878;44.632;10.942;2022-09-02T16:31:24;27.80;99.90
15554;DHT22;7878;44.632;10.942;2022-09-02T16:36:20;27.80;99.90
15554;DHT22;7878;44.632;10.942;2022-09-02T16:38:46;27.80;99.90
15554;DHT22;7878;44.632;10.942;2022-09-02T16:41:29;27.70;99.90
15554;DHT22;7878;44.632;10.942;2022-09-02T16:43:59;27.70;99.90
15554;DHT22;7878;44.632;10.942;2022-09-02T16:46:26;27.60;99.90
15554;DHT22;7878;44.632;10.942;2022-09-02T16:48:52;27.60;99.90
15554;DHT22;7878;44.632;10.942;2022-09-02T16:51:20;27.60;99.90
15554;DHT22;7878;44.632;10.942;2022-09-02T16:53:47;27.60;99.90
15554;DHT22;7878;44.632;10.942;2022-09-02T16:56:16;27.60;99.90
15554;DHT22;7878;44.632;10.942;2022-09-02T16:58:42;27.50;99.90
15554;DHT22;7878;44.632;10.942;2022-09-02T17:01:10;27.50;99.90
15554;DHT22;7878;44.632;10.942;2022-09-02T17:03:37;27.50;99.90
15554;DHT22;7878;44.632;10.942;2022-09-02T17:06:03;27.50;99.90
15554;DHT22;7878;44.632;10.942;2022-09-02T17:08:29;27.50;99.90
15554;DHT22;7878;44.632;10.942;2022-09-02T17:11:18;27.50;99.90
15554;DHT22;7878;44.632;10.942;2022-09-02T17:14:10;27.40;99.90
15554;DHT22;7878;44.632;10.942;2022-09-02T17:16:39;27.40;99.90
15554;DHT22;7878;44.632;10.942;2022-09-02T17:19:05;27.40;99.90
15554;DHT22;7878;44.632;10.942;2022-09-02T17:21:38;27.30;99.90
15554;DHT22;7878;44.632;10.942;2022-09-02T17:24:06;27.30;99.90
15554;DHT22;7878;44.632;10.942;2022-09-02T17:26:36;27.30;99.90
15554;DHT22;7878;44.632;10.942;2022-09-02T17:29:14;27.30;99.90
15554;DHT22;7878;44.632;10.942;2022-09-02T17:31:44;27.30;99.90
15554;DHT22;7878;44.632;10.942;2022-09-02T17:34:10;27.20;99.90
15554;DHT22;7878;44.632;10.942;2022-09-02T17:36:38;27.20;99.90
15554;DHT22;7878;44.632;10.942;2022-09-02T17:39:16;27.20;99.90
15554;DHT22;7878;44.632;10.942;2022-09-02T17:41:42;27.10;99.90
15554;DHT22;7878;44.632;10.942;2022-09-02T17:44:29;27.20;99.90
15554;DHT22;7878;44.632;10.942;2022-09-02T17:47:05;27.10;99.90
15554;DHT22;7878;44.632;10.942;2022-09-02T17:49:32;27.00;99.90
15554;DHT22;7878;44.632;10.942;2022-09-02T17:51:58;27.10;99.90